createdAt,value
2022-12-23T00:01:50.947Z,6.40
2022-12-23T00:06:53.945Z,6.97
2022-12-23T00:12:15.963Z,11.10
2022-12-23T00:17:22.524Z,6.27
2022-12-23T00:22:46.092Z,5.80
2022-12-23T00:28:01.808Z,5.80
2022-12-23T00:33:05.390Z,6.27
2022-12-23T00:38:08.472Z,6.93
2022-12-23T00:43:11.571Z,7.03
2022-12-23T00:48:33.349Z,7.33
2022-12-23T00:53:36.485Z,8.67
2022-12-23T00:58:39.676Z,8.33
2022-12-23T01:04:01.402Z,9.33
2022-12-23T01:09:05.558Z,9.10
2022-12-23T01:14:09.683Z,9.67
2022-12-23T01:19:13.220Z,10.10
2022-12-23T01:24:16.411Z,9.13
2022-12-23T01:29:19.572Z,9.80
2022-12-23T01:34:22.677Z,9.67
2022-12-23T01:39:25.979Z,10.63
2022-12-23T01:44:50.280Z,10.83
2022-12-23T01:49:59.342Z,10.23
2022-12-23T01:55:02.310Z,11.23
2022-12-23T02:00:24.734Z,12.17
2022-12-23T02:05:28.201Z,11.97
2022-12-23T02:10:45.808Z,11.77
2022-12-23T02:16:10.728Z,11.47
2022-12-23T02:21:37.652Z,11.60
2022-12-23T02:27:19.498Z,11.80
2022-12-23T02:32:37.681Z,11.53
2022-12-23T02:37:44.374Z,11.60
2022-12-23T02:42:50.559Z,11.13
2022-12-23T02:47:58.560Z,11.17
2022-12-23T02:53:06.538Z,11.10
2022-12-23T02:58:11.774Z,11.93
2022-12-23T03:03:17.640Z,11.53
2022-12-23T03:08:27.396Z,12.17
2022-12-23T03:13:42.849Z,11.73
2022-12-23T03:19:16.201Z,11.77
2022-12-23T03:24:36.241Z,11.13
2022-12-23T03:30:10.345Z,12.07
2022-12-23T03:35:16.723Z,10.43
2022-12-23T03:40:30.224Z,10.50
2022-12-23T03:45:41.642Z,10.73
2022-12-23T03:50:49.259Z,11.70
2022-12-23T03:56:07.021Z,11.23
2022-12-23T04:01:26.248Z,10.77
2022-12-23T04:06:35.568Z,11.30
2022-12-23T04:11:38.625Z,11.00
2022-12-23T04:16:41.494Z,10.37
2022-12-23T04:21:44.480Z,11.93
2022-12-23T04:26:47.565Z,12.77
2022-12-23T04:31:50.629Z,12.00
2022-12-23T04:36:53.816Z,12.17
2022-12-23T04:41:56.945Z,13.10
2022-12-23T04:47:00.158Z,12.60
2022-12-23T04:52:03.175Z,13.87
2022-12-23T04:57:06.299Z,16.37
2022-12-23T05:02:09.729Z,19.03
2022-12-23T05:07:12.929Z,22.30
2022-12-23T05:12:16.573Z,22.10
2022-12-23T05:17:19.758Z,18.90
2022-12-23T05:22:22.649Z,18.90
2022-12-23T05:27:25.571Z,18.83
2022-12-23T05:32:28.563Z,16.70
2022-12-23T05:37:31.629Z,16.50
2022-12-23T05:42:34.637Z,16.33
2022-12-23T05:47:37.954Z,16.30
2022-12-23T05:52:40.921Z,16.30
2022-12-23T05:57:43.803Z,13.93
2022-12-23T06:02:53.302Z,14.23
2022-12-23T06:07:57.078Z,14.77
2022-12-23T06:13:00.003Z,13.93
2022-12-23T06:18:05.334Z,13.60
2022-12-23T06:23:08.654Z,13.47
2022-12-23T06:28:11.614Z,13.67
2022-12-23T06:33:14.586Z,13.07
2022-12-23T06:38:17.738Z,11.97
2022-12-23T06:43:20.678Z,14.27
2022-12-23T06:48:23.616Z,12.10
2022-12-23T06:53:26.835Z,13.97
2022-12-23T06:58:30.240Z,13.57
2022-12-23T07:03:33.312Z,12.67
2022-12-23T07:08:36.416Z,11.97
2022-12-23T07:13:39.557Z,12.20
2022-12-23T07:18:42.817Z,12.50
2022-12-23T07:23:45.696Z,11.03
2022-12-23T07:28:49.138Z,11.07
2022-12-23T07:33:52.066Z,10.83
2022-12-23T07:38:55.065Z,9.93
2022-12-23T07:43:58.150Z,10.63
2022-12-23T07:49:01.467Z,10.03
2022-12-23T07:54:04.866Z,10.27
2022-12-23T07:59:08.225Z,9.80
2022-12-23T08:04:11.389Z,10.53
2022-12-23T08:09:14.404Z,9.93
2022-12-23T08:14:17.765Z,10.20
2022-12-23T08:19:20.976Z,10.53
2022-12-23T08:24:24.080Z,10.93
2022-12-23T08:29:29.959Z,11.97
2022-12-23T08:34:37.248Z,11.90
2022-12-23T08:39:40.261Z,12.97
2022-12-23T08:44:43.431Z,19.77
2022-12-23T08:49:46.425Z,19.83
2022-12-23T08:54:49.990Z,17.53
2022-12-23T08:59:53.146Z,13.93
2022-12-23T09:04:56.375Z,18.50
2022-12-23T09:09:59.401Z,15.63
2022-12-23T09:15:02.285Z,13.20
2022-12-23T09:20:05.818Z,16.33
2022-12-23T09:25:09.251Z,13.80
2022-12-23T09:30:12.477Z,13.50
2022-12-23T09:35:15.706Z,12.57
2022-12-23T09:40:20.397Z,14.30
2022-12-23T09:45:40.373Z,15.77
2022-12-23T09:50:44.008Z,24.20
2022-12-23T09:56:05.941Z,14.97
2022-12-23T10:01:30.727Z,12.90
2022-12-23T10:06:34.206Z,14.43
2022-12-23T10:11:41.218Z,16.57
2022-12-23T10:16:50.585Z,16.60
2022-12-23T10:21:59.950Z,13.37
2022-12-23T10:27:17.856Z,15.27
2022-12-23T10:32:57.381Z,14.70
2022-12-23T10:38:18.582Z,13.10
2022-12-23T10:43:52.102Z,15.40
2022-12-23T10:49:26.994Z,14.23
2022-12-23T10:54:35.079Z,13.73
2022-12-23T10:59:38.342Z,13.20
2022-12-23T11:04:46.787Z,13.20
2022-12-23T11:09:57.777Z,13.20
2022-12-23T11:15:03.231Z,14.37
2022-12-23T11:20:12.388Z,12.63
2022-12-23T11:25:18.575Z,14.40
2022-12-23T11:30:29.175Z,12.57
2022-12-23T11:35:34.347Z,13.80
2022-12-23T11:40:38.783Z,13.00
2022-12-23T11:45:42.019Z,18.07
2022-12-23T11:50:45.240Z,19.93
2022-12-23T11:56:12.859Z,13.60
2022-12-23T12:01:21.979Z,14.20
2022-12-23T12:06:26.385Z,18.33
2022-12-23T12:11:49.218Z,12.97
2022-12-23T12:16:58.264Z,14.53
2022-12-23T12:22:03.900Z,14.40
2022-12-23T12:27:08.364Z,15.97
2022-12-23T12:32:46.565Z,15.60
2022-12-23T12:38:16.963Z,15.80
2022-12-23T12:43:35.620Z,15.17
2022-12-23T12:48:53.664Z,14.00
2022-12-23T12:54:05.526Z,14.93
2022-12-23T12:59:15.552Z,15.30
2022-12-23T13:04:39.875Z,15.97
2022-12-23T13:09:45.741Z,15.80
2022-12-23T13:15:14.735Z,17.33
2022-12-23T13:20:49.093Z,17.73
2022-12-23T13:25:59.289Z,15.70
2022-12-23T13:31:11.672Z,15.20
2022-12-23T13:36:26.885Z,17.00
2022-12-23T13:41:35.919Z,21.90
2022-12-23T13:46:55.490Z,17.03
2022-12-23T13:52:15.718Z,17.20
2022-12-23T13:57:34.088Z,19.10
2022-12-23T14:02:37.023Z,19.27
2022-12-23T14:07:45.039Z,22.97
2022-12-23T14:12:48.449Z,23.30
2022-12-23T14:18:09.796Z,21.03
2022-12-23T14:23:31.772Z,22.70
2022-12-23T14:28:50.704Z,19.27
2022-12-23T14:33:53.802Z,17.47
2022-12-23T14:39:32.956Z,37.20
2022-12-23T14:44:36.215Z,25.17
2022-12-23T14:49:44.211Z,26.27
2022-12-23T14:55:20.750Z,23.33
2022-12-23T15:00:10.684Z,21.20
2022-12-23T15:05:14.012Z,31.37
2022-12-23T15:10:23.463Z,28.27
2022-12-23T15:15:29.017Z,21.13
2022-12-23T15:20:33.210Z,24.70
2022-12-23T15:25:40.533Z,32.83
2022-12-23T15:30:54.986Z,23.50
2022-12-23T15:36:01.923Z,21.90
2022-12-23T15:41:14.016Z,37.93
2022-12-23T15:46:29.163Z,21.70
2022-12-23T15:52:07.222Z,16.90
2022-12-23T15:56:59.641Z,20.87
2022-12-23T16:08:08.698Z,69.60
2022-12-23T16:13:19.547Z,52.90
2022-12-23T16:18:25.885Z,23.47
2022-12-23T16:23:34.151Z,30.07
2022-12-23T16:28:42.689Z,20.43
2022-12-23T16:33:50.106Z,12.37
2022-12-23T16:38:59.001Z,11.80
2022-12-23T16:44:02.354Z,18.10
2022-12-23T16:49:08.441Z,24.63
2022-12-23T16:54:17.261Z,26.13
2022-12-23T16:59:21.281Z,15.07
2022-12-23T17:04:24.088Z,12.90
2022-12-23T17:09:27.655Z,11.13
2022-12-23T17:14:31.432Z,7.47
2022-12-23T17:19:34.544Z,4.60
2022-12-23T17:24:37.862Z,5.10
2022-12-23T17:29:41.876Z,35.60
2022-12-23T17:34:44.907Z,18.03
2022-12-23T17:39:47.866Z,12.17
2022-12-23T17:44:51.296Z,9.83
2022-12-23T17:49:54.410Z,8.50
2022-12-23T17:54:58.019Z,5.73
2022-12-23T18:00:00.924Z,6.07
2022-12-23T18:05:20.926Z,5.77
2022-12-23T18:10:27.146Z,6.90
2022-12-23T18:15:36.058Z,5.73
2022-12-23T18:20:40.000Z,5.30
2022-12-23T18:25:42.954Z,6.43
2022-12-23T18:30:45.997Z,8.13
2022-12-23T18:35:49.793Z,6.10
2022-12-23T18:40:54.579Z,15.80
2022-12-23T18:46:00.098Z,12.27
2022-12-23T18:51:03.378Z,7.87
2022-12-23T18:56:06.747Z,6.57
2022-12-23T19:01:16.816Z,6.20
2022-12-23T19:06:20.235Z,5.40
2022-12-23T19:11:23.131Z,5.47
2022-12-23T19:16:26.322Z,4.33
2022-12-23T19:21:29.624Z,4.93
2022-12-23T19:26:33.028Z,5.60
2022-12-23T19:31:36.285Z,5.80
2022-12-23T19:36:40.330Z,13.10
2022-12-23T19:41:43.797Z,11.20
2022-12-23T19:46:46.915Z,8.80
2022-12-23T19:51:50.026Z,9.87
2022-12-23T19:56:53.152Z,7.90
2022-12-23T20:01:57.202Z,8.77
2022-12-23T20:07:00.401Z,9.37
2022-12-23T20:12:03.864Z,7.57
2022-12-23T20:17:12.252Z,10.17
2022-12-23T20:22:15.246Z,19.93
2022-12-23T20:27:24.237Z,12.80
2022-12-23T20:32:31.156Z,10.70
2022-12-23T20:37:34.605Z,15.90
2022-12-23T20:42:40.835Z,11.57
2022-12-23T20:47:44.184Z,11.20
2022-12-23T20:52:47.653Z,11.50
2022-12-23T20:57:51.306Z,10.43
2022-12-23T21:02:54.242Z,10.63
2022-12-23T21:07:57.366Z,12.63
2022-12-23T21:13:00.456Z,12.50
2022-12-23T21:18:04.144Z,22.10
2022-12-23T21:23:07.536Z,15.30
2022-12-23T21:28:10.408Z,13.40
2022-12-23T21:33:14.039Z,12.57
2022-12-23T21:38:16.818Z,13.13
2022-12-23T21:43:20.011Z,14.00
2022-12-23T21:48:22.999Z,14.07
2022-12-23T21:53:26.224Z,16.87
2022-12-23T21:58:30.090Z,14.27
2022-12-23T22:03:36.965Z,10.67
2022-12-23T22:08:40.544Z,12.73
2022-12-23T22:13:44.424Z,9.10
2022-12-23T22:18:49.772Z,9.27
2022-12-23T22:23:53.881Z,9.73
2022-12-23T22:28:59.472Z,31.77
2022-12-23T22:34:02.848Z,18.87
2022-12-23T22:39:07.827Z,30.33
2022-12-23T22:44:13.472Z,37.43
2022-12-23T22:49:17.341Z,28.97
2022-12-23T22:54:20.383Z,12.80
2022-12-23T22:59:25.650Z,9.87
2022-12-23T23:04:28.711Z,30.73
2022-12-23T23:09:31.608Z,16.03
2022-12-23T23:14:52.590Z,8.07
2022-12-23T23:19:55.637Z,8.83
2022-12-23T23:24:58.647Z,9.03
2022-12-23T23:30:01.501Z,7.87
2022-12-23T23:35:10.526Z,8.10
2022-12-23T23:40:13.956Z,9.17
2022-12-23T23:45:17.132Z,8.80
2022-12-23T23:50:20.438Z,23.33
2022-12-23T23:55:23.576Z,14.33
